MDT,Max TemperatureF,Mean TemperatureF,Min TemperatureF,Max Dew PointF,MeanDew PointF,Min DewpointF,Max Humidity, Mean Humidity, Min Humidity, Max Sea Level PressureIn, Mean Sea Level PressureIn, Min Sea Level PressureIn, Max VisibilityMiles, Mean VisibilityMiles, Min VisibilityMiles, Max Wind SpeedMPH, Mean Wind SpeedMPH, Max Gust SpeedMPH,PrecipitationIn, CloudCover, Events, WindDirDegrees
2013-3-1,56,39,22,29,24,16,93,55,29,30.16,30.08,30.02,20,17,15,18,7,24,0.00,4,,164
2013-3-2,37,28,18,32,26,18,100,90,68,30.14,30.04,29.84,20,5,0,9,4,,0.00,8,Fog,66
2013-3-3,25,23,21,23,20,18,94,88,80,30.36,30.03,29.75,15,5,0,24,15,36,0.39,8,Rain-Snow,350
2013-3-4,24,20,15,16,14,12,93,80,64,30.47,30.43,30.40,20,13,7,13,5,,0.01,7,Snow,132
2013-3-5,24,16,8,12,10,7,93,78,59,30.37,30.27,29.96,20,9,2,13,8,,0.02,6,Snow,153
2013-3-6,20,12,4,19,14,7,100,91,84,30.09,30.01,29.81,4,1,0,7,3,,0.04,8,Fog-Snow,82
2013-3-7,21,16,10,13,10,7,92,80,60,30.25,30.16,29.98,6,5,2,14,7,,0.16,8,Snow,4
2013-3-8,38,19,0,21,11,-2,93,75,47,30.16,30.10,30.01,20,6,0,9,5,,0.00,3,Fog,292
2013-3-9,37,23,9,20,14,5,86,62,41,30.32,30.27,30.22,20,16,15,17,7,,0.00,2,,209
2013-3-10,43,28,14,23,20,16,74,50,29,30.21,30.09,29.96,20,16,15,24,14,38,0.00,5,,302
2013-3-11,32,26,19,16,11,6,80,51,24,30.37,30.30,30.16,20,15,10,16,8,26,0.00,5,Snow,332
2013-3-12,42,26,10,25,18,12,86,64,37,30.20,30.02,29.89,20,16,15,16,3,,0.00,6,,168
2013-3-13,52,36,21,30,27,19,70,48,28,29.97,29.90,29.76,20,16,15,26,15,37,0.00,4,,268
2013-3-14,17,12,6,16,10,3,93,84,69,30.31,30.24,29.95,5,3,0,13,11,,0.04,8,Fog-Snow,90
2013-3-15,22,14,5,14,9,3,92,81,63,30.35,30.24,30.08,20,9,0,14,6,,0.01,7,Fog-Snow,70
2013-3-16,17,14,10,14,12,9,93,91,82,30.15,29.97,29.78,5,2,0,17,13,18,0.02,8,Fog-Snow,137
2013-3-17,15,8,1,7,4,-2,92,79,55,30.09,30.00,29.80,20,8,1,18,13,26,0.20,7,Snow,15
2013-3-18,27,10,-8,16,8,-4,92,76,50,30.19,30.03,29.89,20,8,1,18,7,23,0.02,6,Snow,346
2013-3-19,35,16,-3,16,7,-7,85,61,32,30.33,30.24,29.88,20,16,15,15,6,,0.00,5,,223
2013-3-20,55,34,12,32,21,7,79,55,32,29.70,29.49,29.34,15,15,15,13,7,21,0.00,5,,303
2013-3-21,35,28,21,28,21,12,93,72,52,30.01,29.72,29.44,20,12,2,24,13,34,0.02,7,Snow,354
2013-3-22,28,21,14,16,11,9,86,63,37,30.36,30.24,30.13,20,18,15,17,9,24,0.00,4,,25
2013-3-23,28,16,3,10,7,0,92,65,33,30.49,30.44,30.40,20,14,2,10,6,,0.00,3,Fog,18
2013-3-24,34,18,2,21,10,0,93,64,26,30.46,30.38,30.30,20,17,15,15,6,21,0.00,0,,164
2013-3-25,41,25,9,16,10,5,79,49,18,30.24,30.19,30.14,15,15,15,16,7,,0.00,0,,5
2013-3-26,46,28,10,25,15,8,93,54,20,30.12,30.07,29.92,20,13,10,14,6,,0.00,3,,72
2013-3-27,50,34,17,25,20,14,86,53,22,30.14,30.08,30.03,15,15,15,14,7,,0.00,2,,114
2013-3-28,53,35,17,30,23,16,87,58,28,30.15,30.10,29.98,20,16,15,15,7,23,0.00,1,,140
2013-3-29,56,38,21,25,21,18,80,47,17,30.18,30.14,30.11,15,15,15,13,9,,0.00,2,,314
2013-3-30,54,38,23,30,24,18,80,54,27,30.32,30.22,30.12,15,15,15,17,8,20,0.00,6,,129
2013-3-31,50,36,22,29,26,23,81,58,34,30.30,30.23,30.11,20,17,15,15,8,18,0.00,5,,85